Saga Pearl II — 9HA2950 — position and weather

sailwx.info

Track history (hours):
 
Tides and Currents Weather Stations Pressure Air Temp Water Temp Dewpoint Dewpoint Depression Visibility Wind Speed Wind Dir Waves Ship Positions

Saga Pearl II

Last reported at 2018-Feb-26 01:00 UTC. Time now 2018-Feb-26 01:16 UTC.
Position N 62°44' E 005°33'.

Length 165 m; draft 6.4 m.

Type: Ship. MMSI: 256878000.

Date/timePositionNaut miles runAvg speedWind from/ knotsBaromVisibWave heightAir tempDewpointWater temp
2018-Feb-26 01:00N 62°44' E 005°33'713.6
2018-Feb-26 00:30N 62°50' E 005°41'510.2
2018-Feb-26 00:00N 62°54' E 005°48'2914.5 200 / 101040.710.8 3.5 2.2 8.3
2018-Feb-25 22:00N 63°18' E 006°24'4314.4 050 / 101040.310.8 2.5-1.8 9.1
2018-Feb-25 19:00N 63°54' E 007°18'8614.3 090 / 151034.1 0.5-0.3 8.9
2018-Feb-25 13:00N 65°06' E 009°06'9914.1 130 / 291039.910.8 -1.5 9.5
2018-Feb-25 06:00N 66°30' E 011°13'0103.9
2018-Feb-25 06:00N 66°30' E 011°12'815.7 140 / 271040.027.0 -3.0
2018-Feb-25 05:30N 66°36' E 011°23'815.0
2018-Feb-25 05:00N 66°43' E 011°33'5415.5
2018-Feb-25 01:30N 67°22' E 013°07'916.5
2018-Feb-25 00:58N 67°29' E 013°23'716.2
2018-Feb-25 00:30N 67°35' E 013°36'816.7
2018-Feb-25 00:00N 67°40' E 013°52'816.8
2018-Feb-24 23:30N 67°46' E 014°08'4 8.4
2018-Feb-24 23:00N 67°42' E 014°06'121582.8 130 / 251041.410.8 -4.0 6.2
2018-Feb-24 22:59N 67°52' E 014°24'816.7
2018-Feb-24 22:30N 67°58' E 014°40'816.9
2018-Feb-24 22:00N 68°03' E 014°57'3456.6
2018-Feb-24 22:00N 68°00' E 014°54'1122.8 140 / 151041.410.8 -4.0-4.5 5.6
2018-Feb-24 21:30N 68°08' E 015°15'917.0
2018-Feb-24 21:00N 68°13' E 015°35'816.7
2018-Feb-24 20:30N 68°18' E 015°52'816.0
2018-Feb-24 20:00N 68°23' E 016°09'714.8
2018-Feb-24 19:30N 68°25' E 016°28'917.1
2018-Feb-24 19:00N 68°26' E 016°51'917.3
2018-Feb-24 18:30N 68°26' E 017°15'4 8.0
2018-Feb-24 18:00N 68°25' E 017°25'0 0.0
2018-Feb-24 17:30N 68°25' E 017°25'0 0.0
2018-Feb-24 17:00N 68°25' E 017°25'0 0.0
2018-Feb-24 16:30N 68°25' E 017°25'0 0.0
2018-Feb-24 15:59N 68°25' E 017°25'0 0.0
2018-Feb-24 15:29N 68°25' E 017°25'0 0.0
2018-Feb-24 14:53N 68°25' E 017°25'0 0.0
2018-Feb-24 14:29N 68°25' E 017°25'0 0.0
2018-Feb-24 13:59N 68°25' E 017°25'0 0.0
2018-Feb-24 13:28N 68°25' E 017°25'0 0.0
2018-Feb-24 12:58N 68°25' E 017°25'0 0.0
2018-Feb-24 12:28N 68°25' E 017°25'0 0.0
2018-Feb-24 11:58N 68°25' E 017°25'0 0.0
2018-Feb-24 11:24N 68°25' E 017°25'0 0.0
2018-Feb-24 11:00N 68°25' E 017°25'0 0.0
2018-Feb-24 10:30N 68°25' E 017°25'0 0.0
2018-Feb-24 10:00N 68°25' E 017°25'2 4.5
2018-Feb-24 09:30N 68°26' E 017°20'714.4
2018-Feb-24 09:00N 68°26' E 017°01'714.8
2018-Feb-24 08:30N 68°26' E 016°41'714.9
2018-Feb-24 08:00N 68°24' E 016°21'713.4
2018-Feb-24 07:29N 68°24' E 016°02'714.5
2018-Feb-24 07:00N 68°30' E 016°08'612.4
2018-Feb-24 06:30N 68°34' E 016°23'5 9.2
2018-Feb-24 06:00N 68°36' E 016°33'613.0
2018-Feb-24 05:30N 68°42' E 016°41'714.7
2018-Feb-24 05:00N 68°48' E 016°50'714.8
2018-Feb-24 04:30N 68°55' E 017°01'714.8
2018-Feb-24 04:00N 69°00' E 017°16'714.5
2018-Feb-24 03:30N 69°06' E 017°28'815.0
2018-Feb-24 03:00N 69°09' E 017°47'611.8
2018-Feb-24 02:30N 69°13' E 017°59'612.7
2018-Feb-24 02:00N 69°19' E 017°60'713.9
2018-Feb-24 01:30N 69°26' E 018°08'714.0
2018-Feb-24 01:00N 69°31' E 018°22'816.0
2018-Feb-24 00:30N 69°33' E 018°43'713.9
2018-Feb-24 00:00N 69°39' E 018°53'510.2
2018-Feb-23 23:30N 69°44' E 019°01'612.8
2018-Feb-23 23:00N 69°47' E 019°15'816.3
2018-Feb-23 22:30N 69°50' E 019°38'815.3
2018-Feb-23 22:00N 69°55' E 019°54'816.0
2018-Feb-23 21:30N 70°02' E 020°06'815.5
2018-Feb-23 21:00N 70°09' E 020°15'815.5
2018-Feb-23 20:29N 70°17' E 020°21'815.9
2018-Feb-23 20:00N 70°25' E 020°18'814.6
2018-Feb-23 19:29N 70°32' E 020°11'510.7
2018-Feb-23 19:00N 70°37' E 020°10'1611.2
2018-Feb-23 17:32N 70°49' E 020°43'111.7
2018-Feb-23 17:28N 70°49' E 020°45'612.7
2018-Feb-23 17:00N 70°49' E 021°03'911.0
2018-Feb-23 16:11N 70°43' E 021°22'315.9
2018-Feb-23 16:00N 70°40' E 021°25'816.3
2018-Feb-23 15:30N 70°33' E 021°36'816.5
2018-Feb-23 15:00N 70°27' E 021°53'816.4
2018-Feb-23 14:30N 70°21' E 022°11'816.6
2018-Feb-23 14:00N 70°16' E 022°30'816.7
2018-Feb-23 13:30N 70°13' E 022°53'815.6
2018-Feb-23 13:00N 70°06' E 023°05'815.9
2018-Feb-23 12:29N 69°60' E 023°19'1 2.3
2018-Feb-23 12:00N 69°59' E 023°20'0 0.0
2018-Feb-23 11:30N 69°59' E 023°20'0 0.0
2018-Feb-23 10:59N 69°59' E 023°20'0 0.0
2018-Feb-23 10:29N 69°59' E 023°20'0 0.0
2018-Feb-23 09:59N 69°59' E 023°20'0 0.0
2018-Feb-23 09:29N 69°59' E 023°20'0 0.0
2018-Feb-23 09:00N 69°59' E 023°20'0 0.0
2018-Feb-23 08:28N 69°59' E 023°20'0 0.0
2018-Feb-23 07:10N 69°59' E 023°20'0 0.0
2018-Feb-23 06:57N 69°59' E 023°20'0 0.0
2018-Feb-23 06:19N 69°59' E 023°20'0 0.0
2018-Feb-23 05:55N 69°59' E 023°20'0 0.0
2018-Feb-23 05:12N 69°59' E 023°20'0 0.0
2018-Feb-23 04:54N 69°59' E 023°20'0 0.0
2018-Feb-23 04:06N 69°59' E 023°20'0 0.0
2018-Feb-23 04:00N 69°59' E 023°20'0 0.0
2018-Feb-23 03:24N 69°59' E 023°20'0 0.0
2018-Feb-23 02:54N 69°59' E 023°20'0 0.0
2018-Feb-23 02:29N 69°59' E 023°20'0 0.0
2018-Feb-22 23:46N 69°59' E 023°20'0 0.0
2018-Feb-22 23:28N 69°59' E 023°20'0 0.0
2018-Feb-22 22:52N 69°59' E 023°20'0 0.0
2018-Feb-22 22:28N 69°59' E 023°20'0 0.0
2018-Feb-22 21:57N 69°59' E 023°20'0 0.0
2018-Feb-22 21:21N 69°59' E 023°20'0 0.0
2018-Feb-22 20:57N 69°59' E 023°20'0 0.0
2018-Feb-22 20:27N 69°59' E 023°20'0 0.0
2018-Feb-22 19:57N 69°59' E 023°20'0 0.0
2018-Feb-22 19:27N 69°59' E 023°20'0 0.0
2018-Feb-22 19:00N 69°59' E 023°20'0 0.0
2018-Feb-22 18:30N 69°59' E 023°20'0 0.0
2018-Feb-22 18:00N 69°59' E 023°20'0 0.0
2018-Feb-22 17:23N 69°59' E 023°20'0 0.0
2018-Feb-22 17:00N 69°59' E 023°20'0 0.0
2018-Feb-22 16:30N 69°59' E 023°20'0 0.0
2018-Feb-22 16:00N 69°59' E 023°20'0 0.0
2018-Feb-22 15:30N 69°59' E 023°20'0 0.0
2018-Feb-22 15:00N 69°59' E 023°20'0 0.0
2018-Feb-22 14:30N 69°59' E 023°20'0 0.0
2018-Feb-22 14:00N 69°59' E 023°20'0 0.0
2018-Feb-22 13:30N 69°59' E 023°20'0 0.0
2018-Feb-22 12:54N 69°59' E 023°20'0 0.0
2018-Feb-22 08:53N 69°59' E 023°20'0 0.0
2018-Feb-22 07:05N 69°59' E 023°20'0 0.0
2018-Feb-22 07:00N 69°59' E 023°20'0 0.1
2018-Feb-22 06:29N 69°59' E 023°20'4 9.1
2018-Feb-22 06:00N 70°03' E 023°13'714.9
2018-Feb-22 05:31N 70°09' E 023°03'815.2
2018-Feb-22 05:00N 70°14' E 022°45'816.6
2018-Feb-22 04:30N 70°17' E 022°23'816.7
2018-Feb-22 04:00N 70°22' E 022°03'816.6
2018-Feb-22 03:30N 70°28' E 021°45'816.3
2018-Feb-22 03:00N 70°34' E 021°27'815.8
2018-Feb-22 02:30N 70°39' E 021°09'27 6.8
2018-Feb-21 22:27N 70°42' E 019°47'612.5
2018-Feb-21 21:59N 70°36' E 019°52'713.8
2018-Feb-21 21:30N 70°31' E 020°05'815.7
2018-Feb-21 21:00N 70°24' E 020°17'816.2
2018-Feb-21 20:31N 70°16' E 020°22'816.3
2018-Feb-21 20:00N 70°08' E 020°16'816.8
2018-Feb-21 19:30N 70°01' E 020°06'917.0
2018-Feb-21 19:00N 69°54' E 019°52'816.5
2018-Feb-21 18:30N 69°49' E 019°33'714.6
2018-Feb-21 18:00N 69°47' E 019°12'815.3
2018-Feb-21 17:30N 69°42' E 018°55'4 8.6
2018-Feb-21 16:59N 69°37' E 018°56'2 3.0
2018-Feb-21 16:29N 69°39' E 018°58'0 0.0
2018-Feb-21 15:58N 69°39' E 018°58'0 0.0
2018-Feb-21 15:28N 69°39' E 018°58'0 0.0
2018-Feb-21 14:58N 69°39' E 018°58'0 0.0
2018-Feb-21 14:28N 69°39' E 018°58'0 0.0
2018-Feb-21 14:00N 69°39' E 018°58'0 0.0
2018-Feb-21 13:30N 69°39' E 018°58'0 0.0
2018-Feb-21 13:00N 69°39' E 018°58'0 0.0
2018-Feb-21 12:30N 69°39' E 018°58'0 0.0
2018-Feb-21 12:00N 69°39' E 018°58'0 0.0
2018-Feb-21 11:29N 69°39' E 018°58'0 0.0
2018-Feb-21 10:59N 69°39' E 018°58'0 0.0
2018-Feb-21 10:29N 69°39' E 018°58'0 0.0
2018-Feb-21 09:59N 69°39' E 018°58'0 0.0
2018-Feb-21 09:25N 69°39' E 018°58'0 0.0
2018-Feb-21 08:58N 69°39' E 018°58'0 0.0
2018-Feb-21 08:28N 69°39' E 018°58'0 0.0
2018-Feb-21 07:58N 69°39' E 018°58'0 0.0
2018-Feb-21 07:25N 69°39' E 018°58'0 0.0
2018-Feb-21 07:00N 69°39' E 018°58'0 0.0
2018-Feb-21 06:30N 69°39' E 018°58'0 0.0
2018-Feb-21 06:00N 69°39' E 018°58'0 0.0
2018-Feb-21 05:30N 69°39' E 018°58'0 0.0
2018-Feb-21 05:00N 69°39' E 018°58'0 0.0
2018-Feb-21 04:29N 69°39' E 018°58'0 0.0
2018-Feb-21 03:59N 69°39' E 018°58'0 0.0
2018-Feb-21 03:29N 69°39' E 018°58'0 0.0
2018-Feb-21 02:59N 69°39' E 018°58'0 0.0
2018-Feb-21 02:28N 69°39' E 018°58'0 0.0
2018-Feb-21 01:58N 69°39' E 018°58'0 0.0
2018-Feb-21 01:28N 69°39' E 018°58'0 0.0
2018-Feb-21 00:57N 69°39' E 018°58'0 0.0
2018-Feb-21 00:28N 69°39' E 018°58'0 0.0
2018-Feb-20 23:57N 69°39' E 018°58'0 0.0
2018-Feb-20 23:30N 69°39' E 018°58'0 0.0
2018-Feb-20 22:57N 69°39' E 018°58'0 0.0
2018-Feb-20 22:30N 69°39' E 018°58'0 0.0
2018-Feb-20 22:00N 69°39' E 018°58'0 0.0
2018-Feb-20 21:29N 69°39' E 018°58'0 0.0
2018-Feb-20 20:59N 69°39' E 018°58'0 0.0
2018-Feb-20 20:29N 69°39' E 018°58'0 0.0
2018-Feb-20 19:59N 69°39' E 018°58'0 0.0
2018-Feb-20 19:28N 69°39' E 018°58'0 0.0
2018-Feb-20 18:58N 69°39' E 018°58'0 0.0
2018-Feb-20 18:28N 69°39' E 018°58'0 0.0
2018-Feb-20 17:58N 69°39' E 018°58'0 0.0
2018-Feb-20 17:28N 69°39' E 018°58'0 0.0
2018-Feb-20 17:00N 69°39' E 018°58'0 0.0
2018-Feb-20 16:30N 69°39' E 018°58'0 0.0
2018-Feb-20 16:00N 69°39' E 018°58'0 0.0
2018-Feb-20 15:30N 69°39' E 018°58'0 0.0
2018-Feb-20 15:00N 69°39' E 018°58'0 0.0
2018-Feb-20 14:29N 69°39' E 018°58'0 0.0
2018-Feb-20 13:59N 69°39' E 018°58'0 0.0
2018-Feb-20 13:29N 69°39' E 018°58'0 0.0
2018-Feb-20 12:59N 69°39' E 018°58'0 0.0
2018-Feb-20 12:28N 69°39' E 018°58'0 0.0
2018-Feb-20 11:58N 69°39' E 018°58'0 0.0
2018-Feb-20 11:28N 69°39' E 018°58'0 0.0
2018-Feb-20 10:58N 69°39' E 018°58'0 0.0
2018-Feb-20 10:28N 69°39' E 018°58'0 0.0
2018-Feb-20 10:00N 69°39' E 018°58'0 0.0
2018-Feb-20 09:30N 69°39' E 018°58'0 0.0
2018-Feb-20 09:00N 69°39' E 018°58'0 0.0
2018-Feb-20 08:30N 69°39' E 018°58'0 0.0
2018-Feb-20 07:59N 69°39' E 018°58'0 0.0
2018-Feb-20 07:29N 69°39' E 018°58'0 0.0
2018-Feb-20 06:56N 69°39' E 018°58'0 0.3
2018-Feb-20 06:30N 69°39' E 018°58'3 6.9
2018-Feb-20 06:00N 69°36' E 018°53'611.8
2018-Feb-20 05:30N 69°33' E 018°38'713.9
2018-Feb-20 05:00N 69°30' E 018°20'612.0
2018-Feb-20 04:30N 69°26' E 018°08'712.5
2018-Feb-20 03:59N 69°20' E 018°02'612.0
2018-Feb-20 03:30N 69°14' E 017°58'4 8.4
2018-Feb-20 03:00N 69°10' E 017°57'816.1
2018-Feb-20 02:30N 69°07' E 017°37'815.7
2018-Feb-20 02:00N 69°02' E 017°19'816.4
2018-Feb-20 01:30N 68°56' E 017°04'816.8
2018-Feb-20 01:00N 68°49' E 016°51'816.8
2018-Feb-20 00:30N 68°42' E 016°41'713.5
2018-Feb-19 23:59N 68°35' E 016°32'4 9.0
2018-Feb-19 23:30N 68°34' E 016°22'611.9
2018-Feb-19 23:00N 68°30' E 016°09'815.3
2018-Feb-19 22:30N 68°23' E 016°01'612.8
2018-Feb-19 22:01N 68°18' E 015°50'815.8
2018-Feb-19 21:30N 68°13' E 015°35'816.0
2018-Feb-19 21:00N 68°09' E 015°16'816.7
2018-Feb-19 20:30N 68°04' E 014°57'816.6
2018-Feb-19 20:00N 67°59' E 014°40'816.5
2018-Feb-19 19:30N 67°53' E 014°24'816.4
2018-Feb-19 19:00N 67°47' E 014°09'816.4
2018-Feb-19 18:30N 67°42' E 013°53'816.5
2018-Feb-19 18:00N 67°36' E 013°39'816.7
2018-Feb-19 17:30N 67°30' E 013°23'816.8
2018-Feb-19 17:00N 67°24' E 013°07'4913.6
2018-Feb-19 13:22N 66°48' E 011°40'410.9
2018-Feb-19 12:58N 66°44' E 011°34'21514.2
2018-Feb-18 21:50N 63°37' E 007°22'515.6
2018-Feb-18 21:30N 63°32' E 007°23'815.5
2018-Feb-18 21:00N 63°24' E 007°27'815.2
2018-Feb-18 20:31N 63°18' E 007°35'714.9
2018-Feb-18 20:01N 63°12' E 007°46'713.1
2018-Feb-18 19:30N 63°07' E 007°36'816.2
2018-Feb-18 19:00N 63°03' E 007°20'816.4
2018-Feb-18 18:30N 63°00' E 007°03'815.7
2018-Feb-18 18:00N 62°55' E 006°50'815.8
2018-Feb-18 17:30N 62°48' E 006°58'816.0
2018-Feb-18 16:59N 62°40' E 007°04'5 0.4
2018-Feb-18 05:31N 62°38' E 007°14'013.5
2018-Feb-18 05:30N 62°39' E 007°13'713.8
2018-Feb-18 04:59N 62°41' E 006°59'713.9
2018-Feb-18 04:30N 62°40' E 006°44'714.3
2018-Feb-18 04:00N 62°38' E 006°30'714.7
2018-Feb-18 03:30N 62°38' E 006°14'3 5.9
2018-Feb-18 03:00N 62°36' E 006°09'612.6
2018-Feb-18 02:30N 62°30' E 006°09'611.8
2018-Feb-18 01:59N 62°27' E 005°57'713.6
2018-Feb-18 01:30N 62°30' E 005°44'815.2
2018-Feb-18 01:00N 62°29' E 005°27'715.1
2018-Feb-18 00:30N 62°27' E 005°12'815.0
2018-Feb-17 23:59N 62°21' E 004°60'714.8
2018-Feb-17 23:30N 62°15' E 004°53'815.3
2018-Feb-17 23:00N 62°08' E 004°48'815.3
2018-Feb-17 22:29N 62°00' E 004°41'816.0
2018-Feb-17 22:00N 61°53' E 004°35'815.6
2018-Feb-17 21:29N 61°46' E 004°28'715.0
2018-Feb-17 21:00N 61°39' E 004°22'815.2
2018-Feb-17 20:28N 61°31' E 004°22'715.4
2018-Feb-17 20:00N 61°24' E 004°21'815.7
2018-Feb-17 19:30N 61°16' E 004°20'815.7
2018-Feb-17 19:00N 61°08' E 004°20'917.0
2018-Feb-17 18:30N 60°60' E 004°22'917.4
2018-Feb-17 18:00N 60°53' E 004°32'714.6
2018-Feb-17 17:30N 60°48' E 004°43'815.8
2018-Feb-17 16:59N 60°41' E 004°51'918.2
2018-Feb-17 16:30N 60°32' E 004°57'917.4
2018-Feb-17 16:00N 60°25' E 005°05'611.1
2018-Feb-17 15:30N 60°24' E 005°16'1 2.2
2018-Feb-17 14:58N 60°24' E 005°19'0 0.0
2018-Feb-17 14:28N 60°24' E 005°19'0 0.0
2018-Feb-17 13:58N 60°24' E 005°19'0 0.0
2018-Feb-17 13:29N 60°24' E 005°19'0 0.0
2018-Feb-17 12:58N 60°24' E 005°19'0 0.0
2018-Feb-17 12:30N 60°24' E 005°19'0 0.0
2018-Feb-17 12:00N 60°24' E 005°19'0 0.0
2018-Feb-17 11:30N 60°24' E 005°19'0 0.0
2018-Feb-17 10:57N 60°24' E 005°19'0 0.0
2018-Feb-17 10:30N 60°24' E 005°19'0 0.0
2018-Feb-17 09:59N 60°24' E 005°19'0 0.0
2018-Feb-17 09:29N 60°24' E 005°19'0 0.0
2018-Feb-17 08:59N 60°24' E 005°19'0 0.0
2018-Feb-17 08:29N 60°24' E 005°19'0 0.0
2018-Feb-17 07:58N 60°24' E 005°19'0 0.0
2018-Feb-17 07:28N 60°24' E 005°19'0 0.0
2018-Feb-17 06:58N 60°24' E 005°19'0 0.1
2018-Feb-17 06:30N 60°24' E 005°19'4 7.3
2018-Feb-17 06:00N 60°23' E 005°11'5 9.6
2018-Feb-17 05:30N 60°18' E 005°12'714.2
2018-Feb-17 04:59N 60°11' E 005°11'612.1
2018-Feb-17 04:30N 60°08' E 004°60'613.2
2018-Feb-17 04:00N 60°04' E 004°50'816.0
2018-Feb-17 03:30N 59°57' E 004°44'816.9
2018-Feb-17 03:00N 59°49' E 004°38'5711.4
2018-Feb-16 22:00N 58°54' E 004°06'   240 / 71018.910.8 6.5 2.4 9.9
Track history (hours):
 
Tides and Currents Weather Stations Pressure Air Temp Water Temp Dewpoint Dewpoint Depression Visibility Wind Speed Wind Dir Waves Ship Positions

Saga Pearl II

Last reported at 2018-Feb-26 01:00 UTC. Time now 2018-Feb-26 01:16 UTC.
Position N 62°44' E 005°33'.

Length 165 m; draft 6.4 m.

Type: Ship. MMSI: 256878000.

Date/timePositionNaut miles runAvg speedWind from/ knotsBaromVisibWave heightAir tempDewpointWater temp
2018-Feb-26 01:00N 62°44' E 005°33'713.6
2018-Feb-26 00:30N 62°50' E 005°41'510.2
2018-Feb-26 00:00N 62°54' E 005°48'2914.5 200 / 101040.710.8 3.5 2.2 8.3
2018-Feb-25 22:00N 63°18' E 006°24'4314.4 050 / 101040.310.8 2.5-1.8 9.1
2018-Feb-25 19:00N 63°54' E 007°18'8614.3 090 / 151034.1 0.5-0.3 8.9
2018-Feb-25 13:00N 65°06' E 009°06'9914.1 130 / 291039.910.8 -1.5 9.5
2018-Feb-25 06:00N 66°30' E 011°13'0103.9
2018-Feb-25 06:00N 66°30' E 011°12'815.7 140 / 271040.027.0 -3.0
2018-Feb-25 05:30N 66°36' E 011°23'815.0
2018-Feb-25 05:00N 66°43' E 011°33'5415.5
2018-Feb-25 01:30N 67°22' E 013°07'916.5
2018-Feb-25 00:58N 67°29' E 013°23'716.2
2018-Feb-25 00:30N 67°35' E 013°36'816.7
2018-Feb-25 00:00N 67°40' E 013°52'816.8
2018-Feb-24 23:30N 67°46' E 014°08'4 8.4
2018-Feb-24 23:00N 67°42' E 014°06'121582.8 130 / 251041.410.8 -4.0 6.2
2018-Feb-24 22:59N 67°52' E 014°24'816.7
2018-Feb-24 22:30N 67°58' E 014°40'816.9
2018-Feb-24 22:00N 68°03' E 014°57'3456.6
2018-Feb-24 22:00N 68°00' E 014°54'1122.8 140 / 151041.410.8 -4.0-4.5 5.6
2018-Feb-24 21:30N 68°08' E 015°15'917.0
2018-Feb-24 21:00N 68°13' E 015°35'816.7
2018-Feb-24 20:30N 68°18' E 015°52'816.0
2018-Feb-24 20:00N 68°23' E 016°09'714.8
2018-Feb-24 19:30N 68°25' E 016°28'917.1
2018-Feb-24 19:00N 68°26' E 016°51'917.3
2018-Feb-24 18:30N 68°26' E 017°15'4 8.0
2018-Feb-24 18:00N 68°25' E 017°25'0 0.0
2018-Feb-24 17:30N 68°25' E 017°25'0 0.0
2018-Feb-24 17:00N 68°25' E 017°25'0 0.0
2018-Feb-24 16:30N 68°25' E 017°25'0 0.0
2018-Feb-24 15:59N 68°25' E 017°25'0 0.0
2018-Feb-24 15:29N 68°25' E 017°25'0 0.0
2018-Feb-24 14:53N 68°25' E 017°25'0 0.0
2018-Feb-24 14:29N 68°25' E 017°25'0 0.0
2018-Feb-24 13:59N 68°25' E 017°25'0 0.0
2018-Feb-24 13:28N 68°25' E 017°25'0 0.0
2018-Feb-24 12:58N 68°25' E 017°25'0 0.0
2018-Feb-24 12:28N 68°25' E 017°25'0 0.0
2018-Feb-24 11:58N 68°25' E 017°25'0 0.0
2018-Feb-24 11:24N 68°25' E 017°25'0 0.0
2018-Feb-24 11:00N 68°25' E 017°25'0 0.0
2018-Feb-24 10:30N 68°25' E 017°25'0 0.0
2018-Feb-24 10:00N 68°25' E 017°25'2 4.5
2018-Feb-24 09:30N 68°26' E 017°20'714.4
2018-Feb-24 09:00N 68°26' E 017°01'714.8
2018-Feb-24 08:30N 68°26' E 016°41'714.9
2018-Feb-24 08:00N 68°24' E 016°21'713.4
2018-Feb-24 07:29N 68°24' E 016°02'714.5
2018-Feb-24 07:00N 68°30' E 016°08'612.4
2018-Feb-24 06:30N 68°34' E 016°23'5 9.2
2018-Feb-24 06:00N 68°36' E 016°33'613.0
2018-Feb-24 05:30N 68°42' E 016°41'714.7
2018-Feb-24 05:00N 68°48' E 016°50'714.8
2018-Feb-24 04:30N 68°55' E 017°01'714.8
2018-Feb-24 04:00N 69°00' E 017°16'714.5
2018-Feb-24 03:30N 69°06' E 017°28'815.0
2018-Feb-24 03:00N 69°09' E 017°47'611.8
2018-Feb-24 02:30N 69°13' E 017°59'612.7
2018-Feb-24 02:00N 69°19' E 017°60'713.9
2018-Feb-24 01:30N 69°26' E 018°08'714.0
2018-Feb-24 01:00N 69°31' E 018°22'816.0
2018-Feb-24 00:30N 69°33' E 018°43'713.9
2018-Feb-24 00:00N 69°39' E 018°53'510.2
2018-Feb-23 23:30N 69°44' E 019°01'612.8
2018-Feb-23 23:00N 69°47' E 019°15'816.3
2018-Feb-23 22:30N 69°50' E 019°38'815.3
2018-Feb-23 22:00N 69°55' E 019°54'816.0
2018-Feb-23 21:30N 70°02' E 020°06'815.5
2018-Feb-23 21:00N 70°09' E 020°15'815.5
2018-Feb-23 20:29N 70°17' E 020°21'815.9
2018-Feb-23 20:00N 70°25' E 020°18'814.6
2018-Feb-23 19:29N 70°32' E 020°11'510.7
2018-Feb-23 19:00N 70°37' E 020°10'1611.2
2018-Feb-23 17:32N 70°49' E 020°43'111.7
2018-Feb-23 17:28N 70°49' E 020°45'612.7
2018-Feb-23 17:00N 70°49' E 021°03'911.0
2018-Feb-23 16:11N 70°43' E 021°22'315.9
2018-Feb-23 16:00N 70°40' E 021°25'816.3
2018-Feb-23 15:30N 70°33' E 021°36'816.5
2018-Feb-23 15:00N 70°27' E 021°53'816.4
2018-Feb-23 14:30N 70°21' E 022°11'816.6
2018-Feb-23 14:00N 70°16' E 022°30'816.7
2018-Feb-23 13:30N 70°13' E 022°53'815.6
2018-Feb-23 13:00N 70°06' E 023°05'815.9
2018-Feb-23 12:29N 69°60' E 023°19'1 2.3
2018-Feb-23 12:00N 69°59' E 023°20'0 0.0
2018-Feb-23 11:30N 69°59' E 023°20'0 0.0
2018-Feb-23 10:59N 69°59' E 023°20'0 0.0
2018-Feb-23 10:29N 69°59' E 023°20'0 0.0
2018-Feb-23 09:59N 69°59' E 023°20'0 0.0
2018-Feb-23 09:29N 69°59' E 023°20'0 0.0
2018-Feb-23 09:00N 69°59' E 023°20'0 0.0
2018-Feb-23 08:28N 69°59' E 023°20'0 0.0
2018-Feb-23 07:10N 69°59' E 023°20'0 0.0
2018-Feb-23 06:57N 69°59' E 023°20'0 0.0
2018-Feb-23 06:19N 69°59' E 023°20'0 0.0
2018-Feb-23 05:55N 69°59' E 023°20'0 0.0
2018-Feb-23 05:12N 69°59' E 023°20'0 0.0
2018-Feb-23 04:54N 69°59' E 023°20'0 0.0
2018-Feb-23 04:06N 69°59' E 023°20'0 0.0
2018-Feb-23 04:00N 69°59' E 023°20'0 0.0
2018-Feb-23 03:24N 69°59' E 023°20'0 0.0
2018-Feb-23 02:54N 69°59' E 023°20'0 0.0
2018-Feb-23 02:29N 69°59' E 023°20'0 0.0
2018-Feb-22 23:46N 69°59' E 023°20'0 0.0
2018-Feb-22 23:28N 69°59' E 023°20'0 0.0
2018-Feb-22 22:52N 69°59' E 023°20'0 0.0
2018-Feb-22 22:28N 69°59' E 023°20'0 0.0
2018-Feb-22 21:57N 69°59' E 023°20'0 0.0
2018-Feb-22 21:21N 69°59' E 023°20'0 0.0
2018-Feb-22 20:57N 69°59' E 023°20'0 0.0
2018-Feb-22 20:27N 69°59' E 023°20'0 0.0
2018-Feb-22 19:57N 69°59' E 023°20'0 0.0
2018-Feb-22 19:27N 69°59' E 023°20'0 0.0
2018-Feb-22 19:00N 69°59' E 023°20'0 0.0
2018-Feb-22 18:30N 69°59' E 023°20'0 0.0
2018-Feb-22 18:00N 69°59' E 023°20'0 0.0
2018-Feb-22 17:23N 69°59' E 023°20'0 0.0
2018-Feb-22 17:00N 69°59' E 023°20'0 0.0
2018-Feb-22 16:30N 69°59' E 023°20'0 0.0
2018-Feb-22 16:00N 69°59' E 023°20'0 0.0
2018-Feb-22 15:30N 69°59' E 023°20'0 0.0
2018-Feb-22 15:00N 69°59' E 023°20'0 0.0
2018-Feb-22 14:30N 69°59' E 023°20'0 0.0
2018-Feb-22 14:00N 69°59' E 023°20'0 0.0
2018-Feb-22 13:30N 69°59' E 023°20'0 0.0
2018-Feb-22 12:54N 69°59' E 023°20'0 0.0
2018-Feb-22 08:53N 69°59' E 023°20'0 0.0
2018-Feb-22 07:05N 69°59' E 023°20'0 0.0
2018-Feb-22 07:00N 69°59' E 023°20'0 0.1
2018-Feb-22 06:29N 69°59' E 023°20'4 9.1
2018-Feb-22 06:00N 70°03' E 023°13'714.9
2018-Feb-22 05:31N 70°09' E 023°03'815.2
2018-Feb-22 05:00N 70°14' E 022°45'816.6
2018-Feb-22 04:30N 70°17' E 022°23'816.7
2018-Feb-22 04:00N 70°22' E 022°03'816.6
2018-Feb-22 03:30N 70°28' E 021°45'816.3
2018-Feb-22 03:00N 70°34' E 021°27'815.8
2018-Feb-22 02:30N 70°39' E 021°09'27 6.8
2018-Feb-21 22:27N 70°42' E 019°47'612.5
2018-Feb-21 21:59N 70°36' E 019°52'713.8
2018-Feb-21 21:30N 70°31' E 020°05'815.7
2018-Feb-21 21:00N 70°24' E 020°17'816.2
2018-Feb-21 20:31N 70°16' E 020°22'816.3
2018-Feb-21 20:00N 70°08' E 020°16'816.8
2018-Feb-21 19:30N 70°01' E 020°06'917.0
2018-Feb-21 19:00N 69°54' E 019°52'816.5
2018-Feb-21 18:30N 69°49' E 019°33'714.6
2018-Feb-21 18:00N 69°47' E 019°12'815.3
2018-Feb-21 17:30N 69°42' E 018°55'4 8.6
2018-Feb-21 16:59N 69°37' E 018°56'2 3.0
2018-Feb-21 16:29N 69°39' E 018°58'0 0.0
2018-Feb-21 15:58N 69°39' E 018°58'0 0.0
2018-Feb-21 15:28N 69°39' E 018°58'0 0.0
2018-Feb-21 14:58N 69°39' E 018°58'0 0.0
2018-Feb-21 14:28N 69°39' E 018°58'0 0.0
2018-Feb-21 14:00N 69°39' E 018°58'0 0.0
2018-Feb-21 13:30N 69°39' E 018°58'0 0.0
2018-Feb-21 13:00N 69°39' E 018°58'0 0.0
2018-Feb-21 12:30N 69°39' E 018°58'0 0.0
2018-Feb-21 12:00N 69°39' E 018°58'0 0.0
2018-Feb-21 11:29N 69°39' E 018°58'0 0.0
2018-Feb-21 10:59N 69°39' E 018°58'0 0.0
2018-Feb-21 10:29N 69°39' E 018°58'0 0.0
2018-Feb-21 09:59N 69°39' E 018°58'0 0.0
2018-Feb-21 09:25N 69°39' E 018°58'0 0.0
2018-Feb-21 08:58N 69°39' E 018°58'0 0.0
2018-Feb-21 08:28N 69°39' E 018°58'0 0.0
2018-Feb-21 07:58N 69°39' E 018°58'0 0.0
2018-Feb-21 07:25N 69°39' E 018°58'0 0.0
2018-Feb-21 07:00N 69°39' E 018°58'0 0.0
2018-Feb-21 06:30N 69°39' E 018°58'0 0.0
2018-Feb-21 06:00N 69°39' E 018°58'0 0.0
2018-Feb-21 05:30N 69°39' E 018°58'0 0.0
2018-Feb-21 05:00N 69°39' E 018°58'0 0.0
2018-Feb-21 04:29N 69°39' E 018°58'0 0.0
2018-Feb-21 03:59N 69°39' E 018°58'0 0.0
2018-Feb-21 03:29N 69°39' E 018°58'0 0.0
2018-Feb-21 02:59N 69°39' E 018°58'0 0.0
2018-Feb-21 02:28N 69°39' E 018°58'0 0.0
2018-Feb-21 01:58N 69°39' E 018°58'0 0.0
2018-Feb-21 01:28N 69°39' E 018°58'0 0.0
2018-Feb-21 00:57N 69°39' E 018°58'0 0.0
2018-Feb-21 00:28N 69°39' E 018°58'0 0.0
2018-Feb-20 23:57N 69°39' E 018°58'0 0.0
2018-Feb-20 23:30N 69°39' E 018°58'0 0.0
2018-Feb-20 22:57N 69°39' E 018°58'0 0.0
2018-Feb-20 22:30N 69°39' E 018°58'0 0.0
2018-Feb-20 22:00N 69°39' E 018°58'0 0.0
2018-Feb-20 21:29N 69°39' E 018°58'0 0.0
2018-Feb-20 20:59N 69°39' E 018°58'0 0.0
2018-Feb-20 20:29N 69°39' E 018°58'0 0.0
2018-Feb-20 19:59N 69°39' E 018°58'0 0.0
2018-Feb-20 19:28N 69°39' E 018°58'0 0.0
2018-Feb-20 18:58N 69°39' E 018°58'0 0.0
2018-Feb-20 18:28N 69°39' E 018°58'0 0.0
2018-Feb-20 17:58N 69°39' E 018°58'0 0.0
2018-Feb-20 17:28N 69°39' E 018°58'0 0.0
2018-Feb-20 17:00N 69°39' E 018°58'0 0.0
2018-Feb-20 16:30N 69°39' E 018°58'0 0.0
2018-Feb-20 16:00N 69°39' E 018°58'0 0.0
2018-Feb-20 15:30N 69°39' E 018°58'0 0.0
2018-Feb-20 15:00N 69°39' E 018°58'0 0.0
2018-Feb-20 14:29N 69°39' E 018°58'0 0.0
2018-Feb-20 13:59N 69°39' E 018°58'0 0.0
2018-Feb-20 13:29N 69°39' E 018°58'0 0.0
2018-Feb-20 12:59N 69°39' E 018°58'0 0.0
2018-Feb-20 12:28N 69°39' E 018°58'0 0.0
2018-Feb-20 11:58N 69°39' E 018°58'0 0.0
2018-Feb-20 11:28N 69°39' E 018°58'0 0.0
2018-Feb-20 10:58N 69°39' E 018°58'0 0.0
2018-Feb-20 10:28N 69°39' E 018°58'0 0.0
2018-Feb-20 10:00N 69°39' E 018°58'0 0.0
2018-Feb-20 09:30N 69°39' E 018°58'0 0.0
2018-Feb-20 09:00N 69°39' E 018°58'0 0.0
2018-Feb-20 08:30N 69°39' E 018°58'0 0.0
2018-Feb-20 07:59N 69°39' E 018°58'0 0.0
2018-Feb-20 07:29N 69°39' E 018°58'0 0.0
2018-Feb-20 06:56N 69°39' E 018°58'0 0.3
2018-Feb-20 06:30N 69°39' E 018°58'3 6.9
2018-Feb-20 06:00N 69°36' E 018°53'611.8
2018-Feb-20 05:30N 69°33' E 018°38'713.9
2018-Feb-20 05:00N 69°30' E 018°20'612.0
2018-Feb-20 04:30N 69°26' E 018°08'712.5
2018-Feb-20 03:59N 69°20' E 018°02'612.0
2018-Feb-20 03:30N 69°14' E 017°58'4 8.4
2018-Feb-20 03:00N 69°10' E 017°57'816.1
2018-Feb-20 02:30N 69°07' E 017°37'815.7
2018-Feb-20 02:00N 69°02' E 017°19'816.4
2018-Feb-20 01:30N 68°56' E 017°04'816.8
2018-Feb-20 01:00N 68°49' E 016°51'816.8
2018-Feb-20 00:30N 68°42' E 016°41'713.5
2018-Feb-19 23:59N 68°35' E 016°32'4 9.0
2018-Feb-19 23:30N 68°34' E 016°22'611.9
2018-Feb-19 23:00N 68°30' E 016°09'815.3
2018-Feb-19 22:30N 68°23' E 016°01'612.8
2018-Feb-19 22:01N 68°18' E 015°50'815.8
2018-Feb-19 21:30N 68°13' E 015°35'816.0
2018-Feb-19 21:00N 68°09' E 015°16'816.7
2018-Feb-19 20:30N 68°04' E 014°57'816.6
2018-Feb-19 20:00N 67°59' E 014°40'816.5
2018-Feb-19 19:30N 67°53' E 014°24'816.4
2018-Feb-19 19:00N 67°47' E 014°09'816.4
2018-Feb-19 18:30N 67°42' E 013°53'816.5
2018-Feb-19 18:00N 67°36' E 013°39'816.7
2018-Feb-19 17:30N 67°30' E 013°23'816.8
2018-Feb-19 17:00N 67°24' E 013°07'4913.6
2018-Feb-19 13:22N 66°48' E 011°40'410.9
2018-Feb-19 12:58N 66°44' E 011°34'21514.2
2018-Feb-18 21:50N 63°37' E 007°22'515.6
2018-Feb-18 21:30N 63°32' E 007°23'815.5
2018-Feb-18 21:00N 63°24' E 007°27'815.2
2018-Feb-18 20:31N 63°18' E 007°35'714.9
2018-Feb-18 20:01N 63°12' E 007°46'713.1
2018-Feb-18 19:30N 63°07' E 007°36'816.2
2018-Feb-18 19:00N 63°03' E 007°20'816.4
2018-Feb-18 18:30N 63°00' E 007°03'815.7
2018-Feb-18 18:00N 62°55' E 006°50'815.8
2018-Feb-18 17:30N 62°48' E 006°58'816.0
2018-Feb-18 16:59N 62°40' E 007°04'5 0.4
2018-Feb-18 05:31N 62°38' E 007°14'013.5
2018-Feb-18 05:30N 62°39' E 007°13'713.8
2018-Feb-18 04:59N 62°41' E 006°59'713.9
2018-Feb-18 04:30N 62°40' E 006°44'714.3
2018-Feb-18 04:00N 62°38' E 006°30'714.7
2018-Feb-18 03:30N 62°38' E 006°14'3 5.9
2018-Feb-18 03:00N 62°36' E 006°09'612.6
2018-Feb-18 02:30N 62°30' E 006°09'611.8
2018-Feb-18 01:59N 62°27' E 005°57'713.6
2018-Feb-18 01:30N 62°30' E 005°44'815.2
2018-Feb-18 01:00N 62°29' E 005°27'715.1
2018-Feb-18 00:30N 62°27' E 005°12'815.0
2018-Feb-17 23:59N 62°21' E 004°60'714.8
2018-Feb-17 23:30N 62°15' E 004°53'815.3
2018-Feb-17 23:00N 62°08' E 004°48'815.3
2018-Feb-17 22:29N 62°00' E 004°41'816.0
2018-Feb-17 22:00N 61°53' E 004°35'815.6
2018-Feb-17 21:29N 61°46' E 004°28'715.0
2018-Feb-17 21:00N 61°39' E 004°22'815.2
2018-Feb-17 20:28N 61°31' E 004°22'715.4
2018-Feb-17 20:00N 61°24' E 004°21'815.7
2018-Feb-17 19:30N 61°16' E 004°20'815.7
2018-Feb-17 19:00N 61°08' E 004°20'917.0
2018-Feb-17 18:30N 60°60' E 004°22'917.4
2018-Feb-17 18:00N 60°53' E 004°32'714.6
2018-Feb-17 17:30N 60°48' E 004°43'815.8
2018-Feb-17 16:59N 60°41' E 004°51'918.2
2018-Feb-17 16:30N 60°32' E 004°57'917.4
2018-Feb-17 16:00N 60°25' E 005°05'611.1
2018-Feb-17 15:30N 60°24' E 005°16'1 2.2
2018-Feb-17 14:58N 60°24' E 005°19'0 0.0
2018-Feb-17 14:28N 60°24' E 005°19'0 0.0
2018-Feb-17 13:58N 60°24' E 005°19'0 0.0
2018-Feb-17 13:29N 60°24' E 005°19'0 0.0
2018-Feb-17 12:58N 60°24' E 005°19'0 0.0
2018-Feb-17 12:30N 60°24' E 005°19'0 0.0
2018-Feb-17 12:00N 60°24' E 005°19'0 0.0
2018-Feb-17 11:30N 60°24' E 005°19'0 0.0
2018-Feb-17 10:57N 60°24' E 005°19'0 0.0
2018-Feb-17 10:30N 60°24' E 005°19'0 0.0
2018-Feb-17 09:59N 60°24' E 005°19'0 0.0
2018-Feb-17 09:29N 60°24' E 005°19'0 0.0
2018-Feb-17 08:59N 60°24' E 005°19'0 0.0
2018-Feb-17 08:29N 60°24' E 005°19'0 0.0
2018-Feb-17 07:58N 60°24' E 005°19'0 0.0
2018-Feb-17 07:28N 60°24' E 005°19'0 0.0
2018-Feb-17 06:58N 60°24' E 005°19'0 0.1
2018-Feb-17 06:30N 60°24' E 005°19'4 7.3
2018-Feb-17 06:00N 60°23' E 005°11'5 9.6
2018-Feb-17 05:30N 60°18' E 005°12'714.2
2018-Feb-17 04:59N 60°11' E 005°11'612.1
2018-Feb-17 04:30N 60°08' E 004°60'613.2
2018-Feb-17 04:00N 60°04' E 004°50'816.0
2018-Feb-17 03:30N 59°57' E 004°44'816.9
2018-Feb-17 03:00N 59°49' E 004°38'5711.4
2018-Feb-16 22:00N 58°54' E 004°06'   240 / 71018.910.8 6.5 2.4 9.9

Dump ship's entire track history